Pleasant View, Colorado
Current Conditions -  °F | °C
As of 12:53 PM on Thursday 29 Jan 2015 (Local Time) from KCEZ Reporting Station
Broken Clouds Broken Clouds  
Wind Chill: 53°   Ceiling: 10000
Heat Index: 53°   Visibility: 10mi
Dew Point: 29°   Wind: 6mph
Humidity: 40%   Direction: NA
Pressure: 30.32"   Gusts: NA
Location:  37.59°N, 108.77°W
Report Text: KCEZ 291953Z AUTO VRB05KT 10SM BKN100 12/M02 A3032 RMK AO2 SLP247 T01171017
Loading
Personal Weather Stations






























Interactive Weather Map New forecast layout! Learn more

10-Day Weather Forecast

Advertisements
Track Severe Weather on mobile